createdAt,value
2022-10-19T00:01:35.868Z,69.80
2022-10-19T00:04:37.319Z,69.80
2022-10-19T00:07:38.640Z,69.80
2022-10-19T00:10:41.420Z,70.00
2022-10-19T00:13:43.215Z,69.80
2022-10-19T00:16:46.032Z,69.80
2022-10-19T00:19:47.625Z,69.70
2022-10-19T00:22:49.905Z,70.00
2022-10-19T00:25:57.193Z,69.60
2022-10-19T00:29:00.479Z,69.50
2022-10-19T00:32:02.144Z,69.30
2022-10-19T00:35:03.904Z,70.20
2022-10-19T00:38:05.902Z,70.10
2022-10-19T00:41:08.353Z,70.10
2022-10-19T00:44:40.864Z,69.50
2022-10-19T00:47:44.201Z,69.60
2022-10-19T00:50:47.258Z,69.60
2022-10-19T00:53:48.747Z,69.70
2022-10-19T00:56:54.309Z,69.80
2022-10-19T00:59:56.860Z,69.80
2022-10-19T01:02:58.363Z,69.80
2022-10-19T01:06:00.245Z,69.70
2022-10-19T01:09:01.755Z,69.90
2022-10-19T01:12:11.326Z,70.10
2022-10-19T01:15:21.816Z,69.40
2022-10-19T01:18:33.008Z,69.60
2022-10-19T01:21:41.760Z,69.70
2022-10-19T01:25:03.891Z,69.60
2022-10-19T01:28:24.375Z,70.00
2022-10-19T01:31:32.263Z,69.60
2022-10-19T01:34:39.898Z,69.50
2022-10-19T01:37:48.259Z,69.40
2022-10-19T01:40:56.327Z,69.50
2022-10-19T01:44:03.619Z,69.60
2022-10-19T01:47:10.291Z,69.60
2022-10-19T01:50:17.424Z,69.60
2022-10-19T01:53:20.952Z,69.60
2022-10-19T01:56:26.713Z,69.50
2022-10-19T01:59:29.685Z,69.80
2022-10-19T02:02:32.053Z,69.20
2022-10-19T02:05:35.968Z,69.70
2022-10-19T02:08:43.478Z,69.50
2022-10-19T02:11:49.046Z,69.30
2022-10-19T02:14:57.691Z,69.60
2022-10-19T02:18:00.713Z,69.40
2022-10-19T02:21:04.413Z,69.70
2022-10-19T02:24:06.185Z,69.40
2022-10-19T02:27:08.527Z,69.30
2022-10-19T02:30:12.198Z,69.30
2022-10-19T02:33:14.478Z,69.50
2022-10-19T02:36:16.910Z,69.50
2022-10-19T02:39:18.941Z,84.30
2022-10-19T02:42:27.383Z,69.40
2022-10-19T02:45:31.905Z,69.30
2022-10-19T02:48:35.835Z,69.00
2022-10-19T02:51:39.476Z,69.20
2022-10-19T02:54:43.489Z,69.10
2022-10-19T02:57:44.890Z,69.00
2022-10-19T03:00:46.227Z,69.40
2022-10-19T03:03:48.255Z,69.50
2022-10-19T03:06:49.644Z,69.60
2022-10-19T03:09:50.915Z,69.30
2022-10-19T03:12:52.365Z,69.40
2022-10-19T03:15:54.038Z,69.40
2022-10-19T03:18:56.100Z,69.10
2022-10-19T03:21:57.669Z,69.30
2022-10-19T03:24:59.310Z,69.50
2022-10-19T03:28:00.757Z,69.30
2022-10-19T03:31:02.090Z,69.40
2022-10-19T03:34:04.127Z,69.40
2022-10-19T03:37:06.026Z,69.20
2022-10-19T03:40:08.197Z,69.00
2022-10-19T03:43:09.677Z,69.10
2022-10-19T03:46:11.528Z,69.30
2022-10-19T03:49:13.540Z,68.60
2022-10-19T03:52:15.042Z,69.20
2022-10-19T03:55:17.394Z,69.10
2022-10-19T03:58:18.844Z,69.00
2022-10-19T04:01:23.521Z,69.40
2022-10-19T04:04:25.647Z,69.00
2022-10-19T04:07:27.133Z,68.70
2022-10-19T04:10:30.821Z,68.90
2022-10-19T04:13:33.141Z,68.80
2022-10-19T04:16:34.901Z,68.70
2022-10-19T04:19:36.936Z,68.90
2022-10-19T04:22:38.315Z,68.80
2022-10-19T04:25:39.867Z,69.00
2022-10-19T04:28:41.368Z,68.30
2022-10-19T04:31:43.042Z,69.00
2022-10-19T04:34:44.960Z,69.00
2022-10-19T04:37:46.380Z,68.80
2022-10-19T04:40:47.643Z,68.90
2022-10-19T04:43:53.924Z,69.20
2022-10-19T04:46:55.693Z,68.70
2022-10-19T04:49:57.666Z,68.50
2022-10-19T04:52:59.062Z,68.90
2022-10-19T04:56:03.430Z,69.00
2022-10-19T04:59:04.830Z,69.10
2022-10-19T05:02:06.124Z,68.90
2022-10-19T05:05:08.694Z,69.10
2022-10-19T05:08:10.920Z,68.90
2022-10-19T05:11:14.266Z,68.80
2022-10-19T05:14:15.848Z,69.00
2022-10-19T05:17:17.506Z,68.80
2022-10-19T05:20:19.498Z,68.80
2022-10-19T05:23:20.942Z,69.00
2022-10-19T05:26:24.148Z,68.90
2022-10-19T05:29:25.612Z,68.70
2022-10-19T05:32:27.674Z,68.80
2022-10-19T05:35:29.635Z,68.60
2022-10-19T05:38:31.035Z,68.60
2022-10-19T05:41:32.377Z,68.80
2022-10-19T05:44:33.912Z,69.00
2022-10-19T05:47:35.803Z,68.90
2022-10-19T05:50:38.661Z,69.00
2022-10-19T05:53:40.990Z,68.90
2022-10-19T05:56:46.324Z,68.90
2022-10-19T05:59:47.736Z,68.80
2022-10-19T06:02:49.298Z,69.00
2022-10-19T06:05:52.108Z,68.70
2022-10-19T06:08:55.508Z,68.90
2022-10-19T06:11:56.955Z,69.20
2022-10-19T06:14:59.421Z,69.00
2022-10-19T06:18:01.011Z,69.60
2022-10-19T06:21:03.674Z,69.20
2022-10-19T06:24:05.744Z,69.70
2022-10-19T06:27:07.296Z,69.10
2022-10-19T06:30:13.811Z,69.50
2022-10-19T06:33:15.588Z,69.10
2022-10-19T06:36:19.778Z,69.40
2022-10-19T06:39:21.222Z,69.20
2022-10-19T06:42:22.601Z,69.30
2022-10-19T06:45:24.183Z,69.20
2022-10-19T06:48:26.069Z,68.90
2022-10-19T06:51:30.131Z,68.60
2022-10-19T06:54:31.562Z,68.30
2022-10-19T06:57:33.178Z,68.80
2022-10-19T07:00:35.007Z,68.80
2022-10-19T07:03:36.951Z,68.60
2022-10-19T07:06:41.403Z,68.50
2022-10-19T07:09:43.685Z,67.20
2022-10-19T07:12:45.414Z,69.00
2022-10-19T07:15:47.436Z,68.60
2022-10-19T07:18:51.678Z,68.60
2022-10-19T07:21:53.131Z,68.30
2022-10-19T07:24:56.220Z,68.30
2022-10-19T07:27:57.891Z,68.20
2022-10-19T07:31:04.762Z,68.10
2022-10-19T07:34:06.218Z,68.10
2022-10-19T07:37:07.566Z,68.20
2022-10-19T07:40:13.336Z,68.20
2022-10-19T07:43:14.757Z,68.00
2022-10-19T07:46:18.679Z,67.70
2022-10-19T07:49:21.777Z,67.80
2022-10-19T07:52:24.581Z,67.80
2022-10-19T07:55:27.743Z,68.00
2022-10-19T07:58:29.363Z,67.60
2022-10-19T08:01:33.284Z,67.70
2022-10-19T08:05:10.533Z,67.20
2022-10-19T08:08:01.571Z,67.40
2022-10-19T08:11:09.127Z,66.60
2022-10-19T08:14:11.390Z,67.00
2022-10-19T08:17:16.614Z,66.80
2022-10-19T08:20:20.243Z,67.00
2022-10-19T08:23:22.464Z,66.10
2022-10-19T08:26:27.446Z,66.10
2022-10-19T08:29:31.392Z,66.40
2022-10-19T08:32:34.575Z,66.40
2022-10-19T08:35:37.390Z,66.00
2022-10-19T08:38:42.810Z,66.50
2022-10-19T08:41:57.066Z,66.30
2022-10-19T08:45:20.725Z,66.00
2022-10-19T08:48:27.884Z,65.90
2022-10-19T08:51:37.257Z,65.90
2022-10-19T08:54:47.692Z,66.00
2022-10-19T08:57:53.598Z,66.00
2022-10-19T09:00:59.817Z,66.00
2022-10-19T09:04:05.130Z,65.70
2022-10-19T09:07:24.333Z,65.80
2022-10-19T09:10:28.828Z,65.60
2022-10-19T09:13:41.694Z,66.00
2022-10-19T09:17:02.572Z,65.70
2022-10-19T09:20:16.987Z,65.70
2022-10-19T09:23:25.338Z,65.80
2022-10-19T09:26:32.232Z,65.70
2022-10-19T09:29:39.740Z,65.60
2022-10-19T09:32:42.424Z,65.50
2022-10-19T09:35:46.033Z,65.60
2022-10-19T09:38:48.385Z,65.50
2022-10-19T09:41:53.555Z,65.20
2022-10-19T09:45:00.659Z,65.40
2022-10-19T09:48:07.192Z,65.20
2022-10-19T09:51:15.892Z,65.00
2022-10-19T09:54:30.700Z,65.10
2022-10-19T09:57:32.864Z,64.90
2022-10-19T10:00:38.114Z,64.90
2022-10-19T10:03:39.676Z,64.70
2022-10-19T10:06:43.576Z,64.50
2022-10-19T10:09:45.790Z,64.30
2022-10-19T10:12:48.070Z,64.30
2022-10-19T10:15:57.071Z,64.30
2022-10-19T10:19:02.175Z,64.10
2022-10-19T10:22:05.170Z,63.90
2022-10-19T10:25:16.326Z,63.90
2022-10-19T10:28:19.918Z,63.80
2022-10-19T10:31:25.163Z,63.60
2022-10-19T10:34:46.029Z,63.40
2022-10-19T10:37:52.608Z,63.60
2022-10-19T10:40:59.384Z,63.50
2022-10-19T10:44:06.001Z,63.10
2022-10-19T10:47:14.255Z,63.40
2022-10-19T10:50:21.327Z,63.40
2022-10-19T10:53:38.986Z,63.50
2022-10-19T10:56:43.036Z,63.40
2022-10-19T10:59:53.713Z,63.60
2022-10-19T11:03:03.861Z,64.00
2022-10-19T11:06:07.641Z,64.00
2022-10-19T11:09:16.852Z,63.70
2022-10-19T11:12:34.338Z,64.30
2022-10-19T11:15:43.504Z,64.10
2022-10-19T11:18:49.725Z,64.00
2022-10-19T11:22:01.098Z,64.30
2022-10-19T11:25:09.898Z,64.40
2022-10-19T11:28:24.560Z,64.70
2022-10-19T11:31:37.146Z,64.50
2022-10-19T11:34:53.369Z,64.60
2022-10-19T11:38:19.452Z,64.80
2022-10-19T11:41:30.115Z,64.30
2022-10-19T11:44:46.097Z,64.70
2022-10-19T11:48:06.577Z,64.60
2022-10-19T11:51:21.785Z,64.80
2022-10-19T11:54:37.700Z,64.70
2022-10-19T11:57:45.443Z,64.90
2022-10-19T12:00:54.085Z,64.70
2022-10-19T12:04:13.025Z,64.50
2022-10-19T12:07:35.356Z,64.40
2022-10-19T12:10:44.908Z,64.40
2022-10-19T12:13:50.699Z,64.50
2022-10-19T12:16:56.059Z,64.20
2022-10-19T12:20:01.151Z,64.20
2022-10-19T12:23:21.182Z,64.20
2022-10-19T12:26:24.276Z,64.10
2022-10-19T12:29:28.275Z,64.20
2022-10-19T12:32:36.347Z,64.10
2022-10-19T12:35:52.618Z,64.10
2022-10-19T12:39:03.949Z,64.20
2022-10-19T12:42:18.785Z,64.20
2022-10-19T12:45:30.601Z,64.30
2022-10-19T12:48:32.084Z,64.30
2022-10-19T12:51:45.015Z,64.10
2022-10-19T12:54:50.006Z,64.30
2022-10-19T12:58:03.635Z,64.20
2022-10-19T13:01:06.746Z,64.40
2022-10-19T13:04:11.889Z,64.10
2022-10-19T13:07:18.030Z,63.90
2022-10-19T13:10:22.902Z,63.80
2022-10-19T13:13:50.993Z,63.80
2022-10-19T13:16:57.422Z,63.60
2022-10-19T13:20:28.707Z,63.50
2022-10-19T13:23:41.337Z,63.30
2022-10-19T13:26:44.349Z,63.50
2022-10-19T13:29:45.833Z,63.40
2022-10-19T13:32:47.321Z,63.40
2022-10-19T13:36:06.559Z,63.20
2022-10-19T13:39:14.314Z,62.90
2022-10-19T13:42:25.115Z,63.10
2022-10-19T13:45:26.759Z,63.20
2022-10-19T13:48:38.047Z,63.20
2022-10-19T13:51:53.689Z,63.20
2022-10-19T13:55:22.520Z,63.20
2022-10-19T13:58:43.192Z,63.20
2022-10-19T14:01:57.351Z,63.50
2022-10-19T14:05:15.225Z,63.20
2022-10-19T14:08:41.150Z,63.00
2022-10-19T14:11:45.527Z,63.50
2022-10-19T14:14:47.639Z,63.20
2022-10-19T14:17:49.509Z,63.30
2022-10-19T14:20:57.251Z,63.70
2022-10-19T14:23:58.834Z,63.70
2022-10-19T14:27:02.894Z,63.50
2022-10-19T14:30:06.356Z,63.50
2022-10-19T14:33:10.195Z,63.40
2022-10-19T14:36:16.594Z,63.50
2022-10-19T14:39:33.605Z,63.60
2022-10-19T14:42:40.131Z,63.90
2022-10-19T14:45:42.442Z,63.90
2022-10-19T14:48:45.942Z,64.00
2022-10-19T14:51:51.363Z,64.10
2022-10-19T14:54:55.157Z,64.20
2022-10-19T14:57:57.075Z,64.40
2022-10-19T15:00:59.251Z,64.50
2022-10-19T15:04:00.819Z,64.40
2022-10-19T15:07:13.170Z,64.40
2022-10-19T15:10:20.091Z,64.30
2022-10-19T15:13:26.166Z,64.60
2022-10-19T15:16:42.123Z,64.80
2022-10-19T15:19:43.695Z,64.90
2022-10-19T15:22:45.117Z,64.80
2022-10-19T15:25:46.581Z,64.80
2022-10-19T15:28:48.539Z,65.00
2022-10-19T15:31:55.670Z,65.00
2022-10-19T15:34:57.551Z,64.90
2022-10-19T15:38:01.961Z,64.90
2022-10-19T15:41:04.582Z,64.70
2022-10-19T15:44:21.929Z,64.70
2022-10-19T15:47:24.525Z,64.80
2022-10-19T15:50:38.827Z,64.50
2022-10-19T15:53:41.889Z,64.80
2022-10-19T15:56:45.493Z,64.80
2022-10-19T15:59:48.031Z,64.80
2022-10-19T16:02:51.225Z,64.90
2022-10-19T16:05:53.001Z,64.90
2022-10-19T16:08:55.117Z,65.10
2022-10-19T16:11:57.005Z,65.30
2022-10-19T16:14:58.460Z,65.20
2022-10-19T16:18:00.639Z,65.90
2022-10-19T16:21:03.465Z,65.50
2022-10-19T16:24:05.325Z,65.20
2022-10-19T16:27:07.993Z,65.50
2022-10-19T16:30:10.874Z,65.60
2022-10-19T16:33:12.895Z,66.00
2022-10-19T16:36:14.709Z,65.60
2022-10-19T16:39:16.327Z,65.60
2022-10-19T16:42:17.939Z,65.50
2022-10-19T16:45:19.429Z,65.60
2022-10-19T16:48:24.067Z,65.40
2022-10-19T16:51:29.132Z,65.60
2022-10-19T16:54:31.904Z,65.20
2022-10-19T16:57:33.524Z,65.00
2022-10-19T17:00:35.390Z,64.80
2022-10-19T17:03:37.553Z,64.20
2022-10-19T17:06:39.849Z,64.10
2022-10-19T17:09:42.815Z,63.80
2022-10-19T17:12:45.081Z,63.20
2022-10-19T17:15:46.534Z,63.00
2022-10-19T17:18:49.393Z,62.70
2022-10-19T17:21:53.795Z,62.50
2022-10-19T17:24:55.886Z,62.10
2022-10-19T17:27:57.307Z,62.00
2022-10-19T17:31:03.309Z,61.90
2022-10-19T17:34:06.041Z,61.70
2022-10-19T17:37:07.435Z,61.40
2022-10-19T17:40:09.653Z,61.50
2022-10-19T17:43:11.374Z,61.90
2022-10-19T17:46:15.436Z,61.20
2022-10-19T17:49:18.016Z,61.10
2022-10-19T17:52:19.447Z,61.20
2022-10-19T17:58:27.820Z,61.10
2022-10-19T18:01:30.230Z,61.10
2022-10-19T18:04:32.300Z,61.00
2022-10-19T18:07:33.989Z,61.00
2022-10-19T18:10:36.445Z,61.10
2022-10-19T18:13:39.010Z,61.00
2022-10-19T18:16:43.918Z,61.10
2022-10-19T18:19:46.279Z,61.20
2022-10-19T18:22:47.689Z,61.10
2022-10-19T18:25:54.337Z,61.80
2022-10-19T18:28:57.202Z,61.10
2022-10-19T18:31:58.647Z,61.20
2022-10-19T18:35:00.854Z,61.30
2022-10-19T18:38:02.757Z,61.20
2022-10-19T18:41:06.315Z,61.40
2022-10-19T18:44:10.898Z,61.50
2022-10-19T18:47:12.322Z,61.40
2022-10-19T18:50:17.614Z,61.60
2022-10-19T18:53:19.113Z,61.60
2022-10-19T18:56:22.273Z,61.60
2022-10-19T18:59:23.938Z,62.00
2022-10-19T19:02:34.797Z,62.00
2022-10-19T19:05:44.530Z,61.80
2022-10-19T19:08:46.300Z,61.80
2022-10-19T19:11:47.829Z,62.00
2022-10-19T19:14:49.488Z,61.90
2022-10-19T19:17:54.173Z,62.00
2022-10-19T19:20:56.254Z,62.00
2022-10-19T19:24:00.164Z,61.90
2022-10-19T19:27:01.636Z,62.00
2022-10-19T19:30:04.028Z,62.20
2022-10-19T19:33:05.488Z,62.10
2022-10-19T19:36:09.110Z,62.30
2022-10-19T19:39:14.091Z,62.40
2022-10-19T19:42:15.812Z,62.40
2022-10-19T19:45:17.464Z,62.50
2022-10-19T19:48:18.872Z,62.60
2022-10-19T19:51:21.587Z,62.60
2022-10-19T19:54:23.148Z,62.50
2022-10-19T19:57:24.592Z,62.70
2022-10-19T20:00:26.154Z,62.50
2022-10-19T20:03:27.532Z,62.80
2022-10-19T20:06:30.094Z,62.80
2022-10-19T20:09:31.614Z,62.70
2022-10-19T20:12:33.011Z,62.90
2022-10-19T20:15:37.658Z,62.90
2022-10-19T20:18:39.282Z,62.80
2022-10-19T20:21:41.503Z,62.90
2022-10-19T20:24:44.011Z,62.90
2022-10-19T20:27:45.412Z,62.90
2022-10-19T20:30:46.836Z,63.10
2022-10-19T20:33:48.573Z,63.00
2022-10-19T20:36:50.634Z,63.20
2022-10-19T20:39:52.057Z,63.10
2022-10-19T20:42:53.463Z,63.00
2022-10-19T20:46:05.068Z,63.30
2022-10-19T20:49:06.675Z,63.40
2022-10-19T20:52:08.841Z,63.30
2022-10-19T20:55:11.262Z,63.40
2022-10-19T20:58:12.697Z,63.30
2022-10-19T21:01:14.765Z,63.30
2022-10-19T21:04:16.388Z,63.50
2022-10-19T21:07:18.347Z,63.60
2022-10-19T21:10:19.760Z,63.70
2022-10-19T21:13:21.180Z,63.70
2022-10-19T21:16:26.763Z,63.70
2022-10-19T21:19:30.074Z,63.70
2022-10-19T21:22:37.998Z,63.70
2022-10-19T21:25:39.445Z,63.80
2022-10-19T21:28:46.034Z,63.60
2022-10-19T21:31:51.267Z,63.70
2022-10-19T21:34:52.741Z,63.80
2022-10-19T21:37:54.680Z,63.60
2022-10-19T21:40:57.863Z,63.70
2022-10-19T21:43:59.403Z,63.70
2022-10-19T21:47:01.055Z,63.90
2022-10-19T21:50:02.985Z,63.60
2022-10-19T21:53:08.447Z,63.80
2022-10-19T21:56:09.943Z,63.70
2022-10-19T21:59:11.656Z,64.10
2022-10-19T22:02:13.177Z,64.40
2022-10-19T22:05:14.852Z,63.70
2022-10-19T22:08:16.893Z,63.80
2022-10-19T22:11:18.634Z,63.90
2022-10-19T22:14:20.037Z,63.80
2022-10-19T22:17:21.727Z,63.70
2022-10-19T22:20:23.109Z,63.80
2022-10-19T22:23:28.138Z,63.70
2022-10-19T22:26:31.873Z,63.70
2022-10-19T22:29:33.451Z,63.80
2022-10-19T22:32:35.204Z,63.80
2022-10-19T22:35:39.994Z,63.60
2022-10-19T22:38:42.035Z,63.80
2022-10-19T22:41:43.487Z,63.80
2022-10-19T22:44:44.865Z,63.60
2022-10-19T22:47:49.370Z,63.90
2022-10-19T22:50:52.791Z,63.50
2022-10-19T22:53:54.822Z,63.50
2022-10-19T22:56:56.248Z,63.40
2022-10-19T22:59:57.634Z,63.70
2022-10-19T23:02:58.930Z,63.60
2022-10-19T23:06:03.530Z,63.50
2022-10-19T23:09:05.536Z,63.40
2022-10-19T23:12:06.960Z,63.40
2022-10-19T23:15:08.680Z,63.40
2022-10-19T23:18:10.903Z,63.40
2022-10-19T23:21:13.454Z,63.30
2022-10-19T23:24:15.474Z,63.20
2022-10-19T23:27:16.935Z,64.20
2022-10-19T23:30:18.448Z,63.20
2022-10-19T23:33:19.889Z,63.50
2022-10-19T23:36:24.221Z,63.10
2022-10-19T23:39:26.270Z,62.90
2022-10-19T23:42:27.780Z,63.10
2022-10-19T23:45:29.283Z,63.10
2022-10-19T23:48:31.125Z,63.20
2022-10-19T23:51:32.813Z,63.00
2022-10-19T23:54:34.836Z,63.00
2022-10-19T23:57:36.536Z,63.00
